createdAt,value
2023-03-05T00:00:15.041Z,10.10
2023-03-05T00:03:14.548Z,15.37
2023-03-05T00:05:43.755Z,14.50
2023-03-05T00:08:11.710Z,10.17
2023-03-05T00:10:38.970Z,10.23
2023-03-05T00:13:08.778Z,8.60
2023-03-05T00:15:41.499Z,12.80
2023-03-05T00:18:09.397Z,9.57
2023-03-05T00:20:36.678Z,11.33
2023-03-05T00:23:04.230Z,9.93
2023-03-05T00:25:31.463Z,12.43
2023-03-05T00:27:58.833Z,12.17
2023-03-05T00:30:26.020Z,13.50
2023-03-05T00:32:53.322Z,14.67
2023-03-05T00:35:20.706Z,19.63
2023-03-05T00:37:56.634Z,18.13
2023-03-05T00:40:24.987Z,22.27
2023-03-05T00:42:52.467Z,17.87
2023-03-05T00:45:20.583Z,17.77
2023-03-05T00:47:49.777Z,19.17
2023-03-05T00:50:17.061Z,21.17
2023-03-05T00:52:44.641Z,23.00
2023-03-05T00:55:12.036Z,20.77
2023-03-05T00:57:39.408Z,19.77
2023-03-05T01:00:08.095Z,17.47
2023-03-05T01:02:35.655Z,16.00
2023-03-05T01:05:03.081Z,17.90
2023-03-05T01:07:34.388Z,16.70
2023-03-05T01:10:02.932Z,18.30
2023-03-05T01:12:34.259Z,16.57
2023-03-05T01:15:02.757Z,15.77
2023-03-05T01:17:31.056Z,18.83
2023-03-05T01:20:35.250Z,18.93
2023-03-05T01:23:08.040Z,17.57
2023-03-05T01:25:36.778Z,22.67
2023-03-05T01:28:05.239Z,16.40
2023-03-05T01:30:35.255Z,15.43
2023-03-05T01:33:02.784Z,20.27
2023-03-05T01:35:30.505Z,21.80
2023-03-05T01:37:57.920Z,17.93
2023-03-05T01:40:26.308Z,16.87
2023-03-05T01:43:17.250Z,23.10
2023-03-05T01:46:03.381Z,22.67
2023-03-05T01:48:30.919Z,17.43
2023-03-05T01:50:58.417Z,20.63
2023-03-05T01:53:25.893Z,21.17
2023-03-05T01:55:55.992Z,18.63
2023-03-05T01:58:24.488Z,20.73
2023-03-05T02:00:53.432Z,22.77
2023-03-05T02:03:22.376Z,21.93
2023-03-05T02:05:50.626Z,25.57
2023-03-05T02:08:19.908Z,22.63
2023-03-05T02:10:52.958Z,21.53
2023-03-05T02:13:33.959Z,21.83
2023-03-05T02:16:03.649Z,21.27
2023-03-05T02:18:35.412Z,20.37
2023-03-05T02:21:08.136Z,20.20
2023-03-05T02:23:37.668Z,20.43
2023-03-05T02:26:10.100Z,21.87
2023-03-05T02:28:46.406Z,19.03
2023-03-05T02:31:17.037Z,21.77
2023-03-05T02:33:44.817Z,18.13
2023-03-05T02:36:12.805Z,17.83
2023-03-05T02:38:40.757Z,20.60
2023-03-05T02:41:10.864Z,21.30
2023-03-05T02:43:39.440Z,19.00
2023-03-05T02:46:09.619Z,16.90
2023-03-05T02:48:37.366Z,19.80
2023-03-05T02:51:07.736Z,23.83
2023-03-05T02:53:39.480Z,19.27
2023-03-05T02:56:07.348Z,18.13
2023-03-05T02:58:38.909Z,18.83
2023-03-05T03:01:06.219Z,19.77
2023-03-05T03:03:33.563Z,19.67
2023-03-05T03:06:00.856Z,19.23
2023-03-05T03:08:28.411Z,18.80
2023-03-05T03:10:57.343Z,18.07
2023-03-05T03:13:25.471Z,15.63
2023-03-05T03:16:01.925Z,23.03
2023-03-05T03:19:19.598Z,18.27
2023-03-05T03:21:47.150Z,17.90
2023-03-05T03:24:18.675Z,19.30
2023-03-05T03:26:53.643Z,18.13
2023-03-05T03:29:48.324Z,18.60
2023-03-05T03:32:19.369Z,21.83
2023-03-05T03:34:48.155Z,17.73
2023-03-05T03:37:15.797Z,19.73
2023-03-05T03:39:45.878Z,19.40
2023-03-05T03:42:14.146Z,19.90
2023-03-05T03:44:42.320Z,19.93
2023-03-05T03:47:09.608Z,20.43
2023-03-05T03:49:37.105Z,18.77
2023-03-05T03:52:04.494Z,19.90
2023-03-05T03:54:39.119Z,21.37
2023-03-05T03:57:10.142Z,19.63
2023-03-05T03:59:37.770Z,17.07
2023-03-05T04:02:05.466Z,18.80
2023-03-05T04:04:32.817Z,18.17
2023-03-05T04:07:00.120Z,19.40
2023-03-05T04:09:27.504Z,16.00
2023-03-05T04:11:57.032Z,21.47
2023-03-05T04:14:27.354Z,17.17
2023-03-05T04:17:08.286Z,23.13
2023-03-05T04:19:45.483Z,17.80
2023-03-05T04:22:20.465Z,17.50
2023-03-05T04:24:49.236Z,18.70
2023-03-05T04:27:17.800Z,15.63
2023-03-05T04:29:45.141Z,20.87
2023-03-05T04:32:12.682Z,18.33
2023-03-05T04:34:40.181Z,17.53
2023-03-05T04:37:07.442Z,15.60
2023-03-05T04:39:34.738Z,14.97
2023-03-05T04:42:03.178Z,17.37
2023-03-05T04:44:30.526Z,14.87
2023-03-05T04:46:58.891Z,19.63
2023-03-05T04:49:26.179Z,16.77
2023-03-05T04:51:53.774Z,15.80
2023-03-05T04:54:25.011Z,18.70
2023-03-05T04:56:53.007Z,19.60
2023-03-05T04:59:20.337Z,16.63
2023-03-05T05:01:47.649Z,18.40
2023-03-05T05:04:16.437Z,20.00
2023-03-05T05:06:44.135Z,14.30
2023-03-05T05:09:12.004Z,14.37
2023-03-05T05:11:40.464Z,18.17
2023-03-05T05:14:08.780Z,14.90
2023-03-05T05:16:36.167Z,17.83
2023-03-05T05:19:05.065Z,15.37
2023-03-05T05:21:32.766Z,12.90
2023-03-05T05:24:02.391Z,17.50
2023-03-05T05:26:29.941Z,15.80
2023-03-05T05:29:00.407Z,17.17
2023-03-05T05:31:30.227Z,15.40
2023-03-05T05:34:08.935Z,17.57
2023-03-05T05:36:36.880Z,19.83
2023-03-05T05:39:06.199Z,12.70
2023-03-05T05:41:34.480Z,14.17
2023-03-05T05:44:01.810Z,15.50
2023-03-05T05:46:29.337Z,16.43
2023-03-05T05:48:57.745Z,14.27
2023-03-05T05:51:31.051Z,14.87
2023-03-05T05:53:58.403Z,13.93
2023-03-05T05:56:25.878Z,14.67
2023-03-05T05:58:54.197Z,11.27
2023-03-05T06:01:24.034Z,15.40
2023-03-05T06:03:59.059Z,13.27
2023-03-05T06:06:27.304Z,13.53
2023-03-05T06:08:55.043Z,12.07
2023-03-05T06:11:24.308Z,13.63
2023-03-05T06:13:52.485Z,16.27
2023-03-05T06:16:36.096Z,15.73
2023-03-05T06:19:11.140Z,11.23
2023-03-05T06:21:40.539Z,13.67
2023-03-05T06:24:08.343Z,12.30
2023-03-05T06:26:37.605Z,16.80
2023-03-05T06:29:04.957Z,15.40
2023-03-05T06:34:14.009Z,15.30
2023-03-05T06:36:43.673Z,15.57
2023-03-05T06:39:18.354Z,14.07
2023-03-05T06:41:47.833Z,15.03
2023-03-05T06:44:15.776Z,13.37
2023-03-05T06:46:52.392Z,11.57
2023-03-05T06:49:27.536Z,14.90
2023-03-05T06:51:55.063Z,13.47
2023-03-05T06:54:23.409Z,11.27
2023-03-05T06:56:50.666Z,14.20
2023-03-05T06:59:18.569Z,12.27
2023-03-05T07:01:46.294Z,14.50
2023-03-05T07:04:14.155Z,14.30
2023-03-05T07:06:45.347Z,13.27
2023-03-05T07:09:15.012Z,12.67
2023-03-05T07:11:42.742Z,14.10
2023-03-05T07:14:18.566Z,15.07
2023-03-05T07:16:48.243Z,10.63
2023-03-05T07:19:15.524Z,13.00
2023-03-05T07:21:44.567Z,13.25
2023-03-05T07:24:16.337Z,10.57
2023-03-05T07:26:44.111Z,12.30
2023-03-05T07:29:11.612Z,13.43
2023-03-05T07:31:38.867Z,19.00
2023-03-05T07:34:39.252Z,17.27
2023-03-05T07:37:08.404Z,11.33
2023-03-05T07:39:42.222Z,11.57
2023-03-05T07:42:09.898Z,11.70
2023-03-05T07:44:51.248Z,15.40
2023-03-05T07:47:20.752Z,12.13
2023-03-05T07:49:54.097Z,11.80
2023-03-05T07:52:23.657Z,15.97
2023-03-05T07:54:51.006Z,11.40
2023-03-05T07:57:18.341Z,11.63
2023-03-05T07:59:45.975Z,11.47
2023-03-05T08:02:14.141Z,13.13
2023-03-05T08:04:43.631Z,14.67
2023-03-05T08:07:10.958Z,18.77
2023-03-05T08:09:38.316Z,12.50
2023-03-05T08:12:05.849Z,16.20
2023-03-05T08:14:33.284Z,14.33
2023-03-05T08:17:00.538Z,13.77
2023-03-05T08:19:30.276Z,14.27
2023-03-05T08:21:57.606Z,14.83
2023-03-05T08:24:29.484Z,14.27
2023-03-05T08:26:58.756Z,12.93
2023-03-05T08:29:27.086Z,17.73
2023-03-05T08:31:54.561Z,13.07
2023-03-05T08:34:23.173Z,13.77
2023-03-05T08:36:51.888Z,14.00
2023-03-05T08:39:19.764Z,12.50
2023-03-05T08:41:54.459Z,15.17
2023-03-05T08:44:21.748Z,17.87
2023-03-05T08:46:50.328Z,23.70
2023-03-05T08:49:22.858Z,16.75
2023-03-05T08:51:51.153Z,17.90
2023-03-05T08:54:18.852Z,18.70
2023-03-05T08:56:46.222Z,15.13
2023-03-05T08:59:13.816Z,17.63
2023-03-05T09:01:41.293Z,19.37
2023-03-05T09:04:08.659Z,16.97
2023-03-05T09:06:39.337Z,20.87
2023-03-05T09:09:07.730Z,17.87
2023-03-05T09:11:36.216Z,21.53
2023-03-05T09:14:04.347Z,18.30
2023-03-05T09:16:32.030Z,20.50
2023-03-05T09:18:59.809Z,18.10
2023-03-05T09:21:27.281Z,17.10
2023-03-05T09:23:59.620Z,20.37
2023-03-05T09:26:27.054Z,20.93
2023-03-05T09:28:54.402Z,21.10
2023-03-05T09:31:21.727Z,20.20
2023-03-05T09:33:49.815Z,20.30
2023-03-05T09:36:22.076Z,20.47
2023-03-05T09:38:51.234Z,20.90
2023-03-05T09:41:38.197Z,22.40
2023-03-05T09:44:28.161Z,22.60
2023-03-05T09:46:57.935Z,23.47
2023-03-05T09:49:31.550Z,22.77
2023-03-05T09:52:06.219Z,21.87
2023-03-05T09:54:37.906Z,21.17
2023-03-05T09:57:06.197Z,21.33
2023-03-05T09:59:44.553Z,25.30
2023-03-05T10:02:21.174Z,24.23
2023-03-05T10:04:53.185Z,27.67
2023-03-05T10:07:37.454Z,21.57
2023-03-05T10:10:11.087Z,21.83
2023-03-05T10:12:43.069Z,21.57
2023-03-05T10:15:12.919Z,24.83
2023-03-05T10:17:40.154Z,26.07
2023-03-05T10:20:07.440Z,26.83
2023-03-05T10:22:43.014Z,29.77
2023-03-05T10:25:33.152Z,27.80
2023-03-05T10:28:18.080Z,25.30
2023-03-05T10:30:50.962Z,28.10
2023-03-05T10:33:37.838Z,23.00
2023-03-05T10:36:24.696Z,23.67
2023-03-05T10:39:13.591Z,26.47
2023-03-05T10:41:55.280Z,24.53
2023-03-05T10:44:34.140Z,27.57
2023-03-05T10:47:04.010Z,25.33
2023-03-05T10:49:33.477Z,23.63
2023-03-05T10:52:09.785Z,21.17
2023-03-05T10:54:41.775Z,23.07
2023-03-05T10:57:13.454Z,24.03
2023-03-05T10:59:59.168Z,21.93
2023-03-05T11:02:27.708Z,21.13
2023-03-05T11:04:55.037Z,23.37
2023-03-05T11:07:27.453Z,18.67
2023-03-05T11:10:04.078Z,17.63
2023-03-05T11:12:38.764Z,20.07
2023-03-05T11:15:09.771Z,18.33
2023-03-05T11:17:46.215Z,17.40
2023-03-05T11:20:35.342Z,15.23
2023-03-05T11:23:03.987Z,14.20
2023-03-05T11:25:37.219Z,16.83
2023-03-05T11:28:05.901Z,16.63
2023-03-05T11:30:36.401Z,18.83
2023-03-05T11:33:22.875Z,17.00
2023-03-05T11:35:52.974Z,20.53
2023-03-05T11:38:29.398Z,17.80
2023-03-05T11:41:08.591Z,18.80
2023-03-05T11:43:41.223Z,22.27
2023-03-05T11:46:13.854Z,20.30
2023-03-05T11:48:43.945Z,22.10
2023-03-05T11:51:18.086Z,17.37
2023-03-05T11:53:54.780Z,17.87
2023-03-05T11:56:29.175Z,19.70
2023-03-05T11:59:04.914Z,19.77
2023-03-05T12:01:34.078Z,18.17
2023-03-05T12:04:02.946Z,20.03
2023-03-05T12:06:37.601Z,19.87
2023-03-05T12:09:11.516Z,23.47
2023-03-05T12:11:40.941Z,25.43
2023-03-05T12:14:31.985Z,26.27
2023-03-05T12:17:05.463Z,21.37
2023-03-05T12:19:50.277Z,19.10
2023-03-05T12:22:20.652Z,16.77
2023-03-05T12:24:48.267Z,13.37
2023-03-05T12:27:35.671Z,16.17
2023-03-05T12:30:05.471Z,17.60
2023-03-05T12:32:32.794Z,13.20
2023-03-05T12:35:06.911Z,11.77
2023-03-05T12:37:37.842Z,15.43
2023-03-05T12:40:08.852Z,15.67
2023-03-05T12:42:43.057Z,16.77
2023-03-05T12:45:11.154Z,18.90
2023-03-05T12:47:42.242Z,14.27
2023-03-05T12:50:49.469Z,16.87
2023-03-05T12:53:18.582Z,11.73
2023-03-05T12:56:15.180Z,13.90
2023-03-05T12:59:10.794Z,15.77
2023-03-05T13:01:57.938Z,17.87
2023-03-05T13:04:29.343Z,18.30
2023-03-05T13:07:01.177Z,14.07
2023-03-05T13:09:31.585Z,18.80
2023-03-05T13:12:04.089Z,15.70
2023-03-05T13:14:49.400Z,12.73
2023-03-05T13:17:45.024Z,16.03
2023-03-05T13:20:30.706Z,14.10
2023-03-05T13:23:18.349Z,14.73
2023-03-05T13:25:46.575Z,13.93
2023-03-05T13:28:15.409Z,16.97
2023-03-05T13:30:46.004Z,17.77
2023-03-05T13:33:17.280Z,12.40
2023-03-05T13:35:54.200Z,9.53
2023-03-05T13:38:31.586Z,10.70
2023-03-05T13:41:05.969Z,13.97
2023-03-05T13:43:37.298Z,10.03
2023-03-05T13:46:05.956Z,8.83
2023-03-05T13:48:33.828Z,11.40
2023-03-05T13:51:07.382Z,12.43
2023-03-05T13:53:34.953Z,12.13
2023-03-05T13:56:03.596Z,11.33
2023-03-05T13:58:50.795Z,11.73
2023-03-05T14:01:18.265Z,8.87
2023-03-05T14:03:53.133Z,14.27
2023-03-05T14:06:24.130Z,7.60
2023-03-05T14:09:11.612Z,10.67
2023-03-05T14:11:41.487Z,11.50
2023-03-05T14:14:17.714Z,14.67
2023-03-05T14:16:55.843Z,10.63
2023-03-05T14:19:35.302Z,12.77
2023-03-05T14:22:05.040Z,11.40
2023-03-05T14:24:34.025Z,14.07
2023-03-05T14:27:05.702Z,22.00
2023-03-05T14:29:33.626Z,11.97
2023-03-05T14:32:06.877Z,16.97
2023-03-05T14:34:34.215Z,15.07
2023-03-05T14:37:07.556Z,12.43
2023-03-05T14:39:51.568Z,13.40
2023-03-05T14:42:27.758Z,14.40
2023-03-05T14:44:55.907Z,13.57
2023-03-05T14:47:26.828Z,12.63
2023-03-05T14:49:54.472Z,14.40
2023-03-05T14:52:24.418Z,15.53
2023-03-05T14:54:52.231Z,17.53
2023-03-05T14:57:22.216Z,15.20
2023-03-05T14:59:49.996Z,19.70
2023-03-05T15:02:21.851Z,17.90
2023-03-05T15:04:49.686Z,16.30
2023-03-05T15:07:34.919Z,18.50
2023-03-05T15:10:02.251Z,18.23
2023-03-05T15:12:30.209Z,16.40
2023-03-05T15:14:58.076Z,14.70
2023-03-05T15:17:36.131Z,16.23
2023-03-05T15:20:08.042Z,15.57
2023-03-05T15:22:35.374Z,18.13
2023-03-05T15:25:03.686Z,16.57
2023-03-05T15:27:31.008Z,17.87
2023-03-05T15:29:59.729Z,15.13
2023-03-05T15:32:29.026Z,14.27
2023-03-05T15:34:56.543Z,16.77
2023-03-05T15:37:24.848Z,20.03
2023-03-05T15:39:52.406Z,17.00
2023-03-05T15:42:20.025Z,19.17
2023-03-05T15:44:47.909Z,19.33
2023-03-05T15:47:18.050Z,20.40
2023-03-05T15:49:45.756Z,16.87
2023-03-05T15:52:14.556Z,16.60
2023-03-05T15:54:41.937Z,16.47
2023-03-05T15:57:10.713Z,19.27
2023-03-05T15:59:38.312Z,21.70
2023-03-05T16:02:06.006Z,16.97
2023-03-05T16:04:34.625Z,18.27
2023-03-05T16:07:05.366Z,17.90
2023-03-05T16:09:41.486Z,17.23
2023-03-05T16:12:16.609Z,20.07
2023-03-05T16:14:44.837Z,19.03
2023-03-05T16:17:12.341Z,19.27
2023-03-05T16:19:45.254Z,18.37
2023-03-05T16:22:13.053Z,20.70
2023-03-05T16:24:42.188Z,19.87
2023-03-05T16:27:17.521Z,21.00
2023-03-05T16:29:47.040Z,21.03
2023-03-05T16:32:16.480Z,20.03
2023-03-05T16:34:45.298Z,18.70
2023-03-05T16:37:19.924Z,21.20
2023-03-05T16:39:48.211Z,20.30
2023-03-05T16:42:20.327Z,21.40
2023-03-05T16:44:48.896Z,22.47
2023-03-05T16:47:19.310Z,23.97
2023-03-05T16:49:47.110Z,23.53
2023-03-05T16:52:19.085Z,22.73
2023-03-05T16:54:48.667Z,23.50
2023-03-05T16:57:17.242Z,21.80
2023-03-05T16:59:47.073Z,24.53
2023-03-05T17:02:15.467Z,22.33
2023-03-05T17:04:44.134Z,23.93
2023-03-05T17:07:12.750Z,23.87
2023-03-05T17:09:44.149Z,24.43
2023-03-05T17:12:11.983Z,21.67
2023-03-05T17:14:43.887Z,26.80
2023-03-05T17:17:12.258Z,24.87
2023-03-05T17:19:40.813Z,23.43
2023-03-05T17:22:14.573Z,27.30
2023-03-05T17:24:46.802Z,29.70
2023-03-05T17:27:20.760Z,25.60
2023-03-05T17:29:50.768Z,26.17
2023-03-05T17:32:19.958Z,27.23
2023-03-05T17:34:48.450Z,27.03
2023-03-05T17:37:19.220Z,26.90
2023-03-05T17:39:47.147Z,27.43
2023-03-05T17:42:15.871Z,27.77
2023-03-05T17:44:45.411Z,28.97
2023-03-05T17:47:14.477Z,25.63
2023-03-05T17:49:41.844Z,34.23
2023-03-05T17:52:12.351Z,34.27
2023-03-05T17:54:39.659Z,29.37
2023-03-05T17:57:08.678Z,30.43
2023-03-05T17:59:38.006Z,31.17
2023-03-05T18:02:11.916Z,39.10
2023-03-05T18:04:42.092Z,32.07
2023-03-05T18:07:11.192Z,37.07
2023-03-05T18:09:39.735Z,36.53
2023-03-05T18:12:08.576Z,39.03
2023-03-05T18:14:37.141Z,36.83
2023-03-05T18:17:04.422Z,39.73
2023-03-05T18:19:32.819Z,41.70
2023-03-05T18:22:01.090Z,39.57
2023-03-05T18:24:30.235Z,38.20
2023-03-05T18:27:00.043Z,39.57
2023-03-05T18:29:29.087Z,37.83
2023-03-05T18:31:59.471Z,40.67
2023-03-05T18:34:32.777Z,48.53
2023-03-05T18:37:03.388Z,39.53
2023-03-05T18:39:33.400Z,41.97
2023-03-05T18:42:00.975Z,42.60
2023-03-05T18:44:29.193Z,40.70
2023-03-05T18:46:56.535Z,39.07
2023-03-05T18:49:23.907Z,38.20
2023-03-05T18:51:51.205Z,42.97
2023-03-05T18:54:18.594Z,38.00
2023-03-05T18:56:46.148Z,41.20
2023-03-05T18:59:13.450Z,42.17
2023-03-05T19:01:40.836Z,39.37
2023-03-05T19:04:10.188Z,36.37
2023-03-05T19:06:38.440Z,34.13
2023-03-05T19:09:14.496Z,38.73
2023-03-05T19:11:42.763Z,36.23
2023-03-05T19:14:10.037Z,35.00
2023-03-05T19:16:43.562Z,37.67
2023-03-05T19:19:16.803Z,36.77
2023-03-05T19:21:45.565Z,40.03
2023-03-05T19:24:20.465Z,36.83
2023-03-05T19:26:48.568Z,41.17
2023-03-05T19:29:16.120Z,40.97
2023-03-05T19:31:43.491Z,41.33
2023-03-05T19:34:13.294Z,40.13
2023-03-05T19:36:40.567Z,42.30
2023-03-05T19:39:08.966Z,46.77
2023-03-05T19:41:37.711Z,43.87
2023-03-05T19:44:05.315Z,45.83
2023-03-05T19:46:32.643Z,45.03
2023-03-05T19:49:00.168Z,45.23
2023-03-05T19:51:28.439Z,45.83
2023-03-05T19:53:57.312Z,52.07
2023-03-05T19:56:25.122Z,49.57
2023-03-05T19:58:52.581Z,49.10
2023-03-05T20:01:26.797Z,44.93
2023-03-05T20:03:55.179Z,49.03
2023-03-05T20:06:23.008Z,46.67
2023-03-05T20:08:50.886Z,49.17
2023-03-05T20:11:20.057Z,46.93
2023-03-05T20:13:47.789Z,45.80
2023-03-05T20:16:21.244Z,48.03
2023-03-05T20:18:52.743Z,48.90
2023-03-05T20:21:23.171Z,57.33
2023-03-05T20:23:51.179Z,47.13
2023-03-05T20:26:18.486Z,49.93
2023-03-05T20:28:45.813Z,49.10
2023-03-05T20:31:13.281Z,50.80
2023-03-05T20:33:41.092Z,49.37
2023-03-05T20:36:11.249Z,47.83
2023-03-05T20:38:38.798Z,49.87
2023-03-05T20:41:07.838Z,46.57
2023-03-05T20:43:36.738Z,47.10
2023-03-05T20:46:04.608Z,48.90
2023-03-05T20:48:35.907Z,44.73
2023-03-05T20:51:17.136Z,47.30
2023-03-05T20:53:44.482Z,43.87
2023-03-05T20:56:13.287Z,46.63
2023-03-05T20:58:40.748Z,40.83
2023-03-05T21:01:08.488Z,44.83
2023-03-05T21:03:37.322Z,45.07
2023-03-05T21:06:04.921Z,37.50
2023-03-05T21:08:32.639Z,41.97
2023-03-05T21:11:06.274Z,45.57
2023-03-05T21:13:33.648Z,40.20
2023-03-05T21:16:02.130Z,39.23
2023-03-05T21:18:29.871Z,39.10
2023-03-05T21:20:58.262Z,39.93
2023-03-05T21:23:26.016Z,44.40
2023-03-05T21:26:04.454Z,40.77
2023-03-05T21:28:34.371Z,38.57
2023-03-05T21:31:06.786Z,40.00
2023-03-05T21:33:35.079Z,41.40
2023-03-05T21:36:02.351Z,38.87
2023-03-05T21:38:29.926Z,40.37
2023-03-05T21:40:58.857Z,43.77
2023-03-05T21:43:33.953Z,42.83
2023-03-05T21:46:03.441Z,41.47
2023-03-05T21:48:31.202Z,38.17
2023-03-05T21:50:59.328Z,41.03
2023-03-05T21:53:26.961Z,39.77
2023-03-05T21:56:20.894Z,43.00
2023-03-05T21:58:49.318Z,42.83
2023-03-05T22:01:21.130Z,40.00
2023-03-05T22:03:50.083Z,39.07
2023-03-05T22:06:21.413Z,37.97
2023-03-05T22:08:51.630Z,40.50
2023-03-05T22:11:21.578Z,38.90
2023-03-05T22:13:52.335Z,42.00
2023-03-05T22:16:24.627Z,40.70
2023-03-05T22:18:55.541Z,40.27
2023-03-05T22:21:25.191Z,43.87
2023-03-05T22:23:57.433Z,42.87
2023-03-05T22:26:25.733Z,38.50
2023-03-05T22:28:53.077Z,41.83
2023-03-05T22:31:22.092Z,39.90
2023-03-05T22:33:49.998Z,43.37
2023-03-05T22:36:17.458Z,40.97
2023-03-05T22:38:50.449Z,46.70
2023-03-05T22:41:20.099Z,44.43
2023-03-05T22:43:48.004Z,45.43
2023-03-05T22:46:17.450Z,45.10
2023-03-05T22:48:45.296Z,49.80
2023-03-05T22:51:13.313Z,48.63
2023-03-05T22:53:42.130Z,46.67
2023-03-05T22:56:14.661Z,47.80
2023-03-05T22:58:46.428Z,47.43
2023-03-05T23:01:20.456Z,52.50
2023-03-05T23:03:53.186Z,48.70
2023-03-05T23:06:24.010Z,53.23
2023-03-05T23:08:58.842Z,51.47
2023-03-05T23:11:29.112Z,52.00
2023-03-05T23:13:59.310Z,53.73
2023-03-05T23:16:26.953Z,50.83
2023-03-05T23:18:54.524Z,53.37
2023-03-05T23:21:23.930Z,57.47
2023-03-05T23:23:53.062Z,55.03
2023-03-05T23:26:20.313Z,56.20
2023-03-05T23:28:47.661Z,56.70
2023-03-05T23:31:17.764Z,55.53
2023-03-05T23:33:45.248Z,52.70
2023-03-05T23:36:12.583Z,60.67
2023-03-05T23:38:41.978Z,53.83
2023-03-05T23:41:09.862Z,54.77
2023-03-05T23:43:37.258Z,53.60
2023-03-05T23:46:10.423Z,58.87
2023-03-05T23:48:37.856Z,59.23
2023-03-05T23:51:08.891Z,52.87
2023-03-05T23:53:38.183Z,54.57
2023-03-05T23:56:10.072Z,60.77
2023-03-05T23:58:37.805Z,54.40
